Flight Track Log - Related Links

Times and Time Zones

All times are in EDT time to prevent confusion due to time zone crossing. See the UAL1206 flight status page for this flight to view local times or setup timezone preferences in your user account.

Time Position Orientation Groundspeed Altitude Reporting Facility
EDT Latitude Longitude Course Direction KTS MPH feet Rate Location/Type
Wed 11:24:42 AM 32.7440 -117.2340 121° Southeast 199 229 1,200  Level FlightAware ADS-B
Wed 11:24:57 AM 32.7490 -117.2530 287° West 220 253 1,700 3,000 Climbing FlightAware ADS-B
Wed 11:25:22 AM 32.7550 -117.2800 285° West 215 247 3,200 3,600 Climbing FlightAware ADS-B
Wed 11:25:27 AM 32.7560 -117.2870 280° West 217 250 3,500 1,800 Climbing FlightAware ADS-B
Wed 11:25:52 AM 32.7520 -117.3040 254° West 230 265 4,100 1,886 Climbing FlightAware ADS-B
Wed 11:26:02 AM 32.7450 -117.3130 227° Southwest 232 267 4,600 2,600 Climbing FlightAware ADS-B
Wed 11:26:22 AM 32.7270 -117.3220 203° Southwest 243 280 5,400 2,800 Climbing FlightAware ADS-B
Wed 11:26:47 AM 32.6900 -117.2940 148° Southeast 280 322 6,700 2,850 Climbing FlightAware ADS-B
Wed 11:27:02 AM 32.6850 -117.2740 107° East 284 327 7,300 2,600 Climbing FlightAware ADS-B
Wed 11:27:17 AM 32.6830 -117.2470 95° East 292 336 8,000 3,000 Climbing FlightAware ADS-B
Wed 11:27:42 AM 32.6810 -117.2090 94° East 299 344 9,300 2,571 Climbing FlightAware ADS-B
Wed 11:28:27 AM 32.6730 -117.1340 97° East 329 379 11,000 2,541 Climbing FlightAware ADS-B
Wed 11:29:07 AM 32.6640 -117.0580 98° East 343 395 12,900 2,850 Climbing FlightAware ADS-B
Wed 11:29:47 AM 32.6550 -116.9800 98° East 361 415 14,800 1,906 Climbing FlightAware ADS-B
Wed 11:30:32 AM 32.6470 -116.9000 97° East 366 421 15,600 565 Climbing FlightAware ADS-B
Wed 11:31:12 AM 32.6400 -116.8330 97° East 366 421 15,600  Level FlightAware ADS-B
Wed 11:31:52 AM 32.6330 -116.7650 97° East 366 421 15,600  Level FlightAware ADS-B
Wed 11:32:32 AM 32.6260 -116.6970 97° East 366 421 15,600 4,376 Level FlightAware ADS-B
Wed 11:33:17 AM 32.6410 -116.5760 82° East 352 405 21,800 4,376 Climbing FlightAware ADS-B
Wed 11:33:57 AM 32.6340 -116.5110 97° East 352 405 21,800  Level FlightAware ADS-B
Wed 11:34:37 AM 32.6270 -116.4460 97° East 352 405 21,800  Level FlightAware ADS-B
Wed 11:35:27 AM 32.6190 -116.3640 97° East 352 405 21,800  Level FlightAware ADS-B
Wed 11:36:07 AM 32.6120 -116.2990 97° East 352 405 21,800  Level FlightAware ADS-B
Wed 11:36:47 AM 32.6060 -116.2330 96° East 352 405 21,800 5,349 Level FlightAware ADS-B
Wed 11:37:30 AM 32.7089 -115.9458 96° East 460 529 29,200 5,029 Climbing Los Angeles Center
Wed 11:38:32 AM 32.7267 -115.7597 83° East 473 544 30,600 1,210 Climbing Los Angeles Center
Wed 11:39:34 AM 32.7406 -115.5997 84° East 483 556 31,700 1,065 Climbing Los Angeles Center
Wed 11:40:36 AM 32.7528 -115.4347 85° East 497 572 32,800 1,152 Climbing Los Angeles Center
Wed 11:41:39 AM 32.7553 -115.2700 89° East 501 577 34,100 592 Climbing Los Angeles Center
Wed 11:47:42 AM 32.7730 -114.2370 89° East 517 595 37,000 421 Climbing FlightAware ADS-B
Wed 11:48:32 AM 32.7750 -114.1180 89° East 517 595 37,000  Level FlightAware ADS-B
Wed 11:49:02 AM 32.7750 -114.0250 90° East 514 592 37,000  Level FlightAware ADS-B
Wed 11:49:47 AM 32.7880 -113.8910 83° East 515 593 37,000  Level FlightAware ADS-B
Wed 11:50:37 AM 32.8110 -113.7290 80° East 517 595 37,000  Level FlightAware ADS-B
Wed 11:51:12 AM 32.8230 -113.6460 80° East 518 596 37,000  Level FlightAware ADS-B
Wed 11:51:57 AM 32.8390 -113.5310 81° East 520 598 37,000  Level FlightAware ADS-B
Wed 11:52:42 AM 32.8550 -113.4160 81° East 520 598 37,000  Level FlightAware ADS-B
Wed 11:53:22 AM 32.8760 -113.2610 81° East 521 600 37,000  Level FlightAware ADS-B
Wed 11:54:07 AM 32.8940 -113.1350 80° East 521 600 37,000  Level FlightAware ADS-B
Wed 11:54:42 AM 32.9080 -113.0360 80° East 522 601 37,000  Level FlightAware ADS-B
Wed 11:55:32 AM 32.9260 -112.8960 81° East 523 602 37,000  Level FlightAware ADS-B
Wed 11:56:12 AM 32.9420 -112.7800 81° East 523 602 37,000  Level FlightAware ADS-B
Wed 11:56:52 AM 32.9520 -112.6690 84° East 523 602 37,000  Level FlightAware ADS-B
Wed 11:57:37 AM 32.9440 -112.5380 94° East 520 598 37,000  Level FlightAware ADS-B
Wed 11:58:17 AM 32.9310 -112.4230 98° East 519 597 37,000  Level FlightAware ADS-B
Wed 11:58:57 AM 32.9140 -112.3150 101° East 519 597 37,000  Level FlightAware ADS-B
Wed 11:59:42 AM 32.8930 -112.1860 101° East 520 598 37,000  Level FlightAware ADS-B
Wed 12:00:22 PM 32.8750 -112.0720 101° East 519 597 37,000  Level FlightAware ADS-B
Wed 12:01:07 PM 32.8560 -111.9500 100° East 519 597 37,000  Level FlightAware ADS-B
Wed 12:01:47 PM 32.8380 -111.8350 101° East 522 601 37,000  Level FlightAware ADS-B
Wed 12:02:32 PM 32.8180 -111.7060 100° East 523 602 37,000  Level FlightAware ADS-B
Wed 12:03:12 PM 32.8000 -111.5950 101° East 524 603 37,000  Level FlightAware ADS-B
Wed 12:03:52 PM 32.7810 -111.4800 101° East 526 605 37,000  Level FlightAware ADS-B
Wed 12:04:37 PM 32.7610 -111.3570 101° East 528 608 37,000  Level FlightAware ADS-B
Wed 12:05:17 PM 32.7410 -111.2420 102° East 529 609 37,000  Level FlightAware ADS-B
Wed 12:06:02 PM 32.7200 -111.1110 101° East 529 609 37,000  Level FlightAware ADS-B
Wed 12:06:42 PM 32.7010 -110.9970 101° East 532 612 37,000  Level FlightAware ADS-B
Wed 12:07:27 PM 32.6800 -110.8710 101° East 533 613 37,000  Level FlightAware ADS-B
Wed 12:08:07 PM 32.6610 -110.7570 101° East 532 612 37,000  Level FlightAware ADS-B
Wed 12:08:47 PM 32.6410 -110.6430 102° East 533 613 37,000  Level FlightAware ADS-B
Wed 12:09:32 PM 32.6180 -110.5100 102° East 534 615 37,000  Level FlightAware ADS-B
Wed 12:10:12 PM 32.5990 -110.3960 101° East 534 615 37,000  Level FlightAware ADS-B
Wed 12:10:52 PM 32.5790 -110.2810 102° East 534 615 37,000  Level FlightAware ADS-B
Wed 12:11:37 PM 32.5570 -110.1550 102° East 535 616 37,000  Level FlightAware ADS-B
Wed 12:12:17 PM 32.5380 -110.0420 101° East 536 617 37,000  Level FlightAware ADS-B
Wed 12:12:57 PM 32.5170 -109.9250 102° East 535 616 37,000  Level FlightAware ADS-B
Wed 12:13:42 PM 32.4930 -109.7950 102° East 533 613 37,000  Level FlightAware ADS-B
Wed 12:14:22 PM 32.4730 -109.6820 102° East 536 617 37,000  Level FlightAware ADS-B
Wed 12:15:07 PM 32.4510 -109.5550 102° East 537 618 37,000  Level FlightAware ADS-B
Wed 12:15:47 PM 32.4300 -109.4400 102° East 536 617 37,000  Level FlightAware ADS-B
Wed 12:16:27 PM 32.4090 -109.3240 102° East 537 618 37,000  Level FlightAware ADS-B
Wed 12:17:12 PM 32.3860 -109.1970 102° East 538 619 37,000  Level FlightAware ADS-B
Wed 12:17:52 PM 32.3640 -109.0780 102° East 539 620 37,000  Level FlightAware ADS-B
Wed 12:18:37 PM 32.3400 -108.9490 102° East 540 621 37,000  Level FlightAware ADS-B
Wed 12:19:32 PM 32.3130 -108.7980 102° East 540 621 37,000  Level FlightAware ADS-B
Wed 12:20:12 PM 32.2950 -108.7000 102° East 540 621 37,000  Level FlightAware ADS-B
Wed 12:20:52 PM 32.2770 -108.6020 102° East 540 621 37,000  Level FlightAware ADS-B
Wed 12:21:32 PM 32.2600 -108.5030 101° East 540 621 37,000  Level FlightAware ADS-B
Wed 12:22:22 PM 32.2380 -108.3800 102° East 540 621 37,000  Level FlightAware ADS-B
Wed 12:23:02 PM 32.2200 -108.2820 102° East 540 621 37,000  Level FlightAware ADS-B
Wed 12:23:42 PM 32.2020 -108.1840 102° East 540 621 37,000  Level FlightAware ADS-B
Wed 12:24:22 PM 32.1850 -108.0860 102° East 540 621 37,000  Level FlightAware ADS-B
Wed 12:25:02 PM 32.1670 -107.9880 102° East 540 621 37,000  Level FlightAware ADS-B
Wed 12:25:52 PM 32.1450 -107.8650 102° East 540 621 37,000  Level FlightAware ADS-B
Wed 12:26:32 PM 32.1270 -107.7670 102° East 540 621 37,000  Level FlightAware ADS-B
Wed 12:27:12 PM 32.1100 -107.6690 102° East 540 621 37,000  Level FlightAware ADS-B
Wed 12:27:52 PM 32.0920 -107.5710 102° East 540 621 37,000  Level FlightAware ADS-B
Wed 12:28:32 PM 32.0740 -107.4730 102° East 540 621 37,000  Level FlightAware ADS-B
Wed 12:29:22 PM 31.9800 -107.0830 106° East 556 640 37,000  Level FlightAware ADS-B
Wed 12:30:02 PM 31.9570 -106.9690 103° East 554 638 37,000  Level FlightAware ADS-B
Wed 12:30:42 PM 31.9340 -106.8560 103° East 552 635 37,000  Level FlightAware ADS-B
Wed 12:31:27 PM 31.9060 -106.7200 104° East 550 633 37,000  Level FlightAware ADS-B
Wed 12:32:07 PM 31.8820 -106.6020 103° East 550 633 37,000  Level FlightAware ADS-B
Wed 12:32:52 PM 31.8560 -106.4730 103° East 548 631 37,000  Level FlightAware ADS-B
Wed 12:33:32 PM 31.8320 -106.3570 104° East 549 632 37,000  Level FlightAware ADS-B
Wed 12:34:12 PM 31.8060 -106.2420 105° East 548 631 37,000  Level FlightAware ADS-B
Wed 12:34:57 PM 31.7740 -106.1130 106° East 542 624 37,000  Level FlightAware ADS-B
Wed 12:35:37 PM 31.7470 -106.0020 106° East 543 625 37,000  Level FlightAware ADS-B
Wed 12:36:17 PM 31.7190 -105.8930 107° East 544 626 37,000  Level FlightAware ADS-B
Wed 12:36:52 PM 31.6950 -105.7950 106° East 543 625 37,000  Level FlightAware ADS-B
Wed 12:37:37 PM 31.6650 -105.6750 106° East 544 626 37,000  Level FlightAware ADS-B
Wed 12:38:17 PM 31.6420 -105.5780 106° East 544 626 37,000  Level FlightAware ADS-B
Wed 12:39:07 PM 31.6120 -105.4570 106° East 544 626 37,000  Level FlightAware ADS-B
Wed 12:39:47 PM 31.5890 -105.3610 106° East 544 626 37,000  Level FlightAware ADS-B
Wed 12:40:27 PM 31.5650 -105.2640 106° East 544 626 37,000  Level FlightAware ADS-B
Wed 12:41:07 PM 31.5420 -105.1680 106° East 544 626 37,000  Level FlightAware ADS-B
Wed 12:41:57 PM 31.5120 -105.0470 106° East 544 626 37,000  Level FlightAware ADS-B
Wed 12:42:37 PM 31.4890 -104.9510 106° East 544 626 37,000  Level FlightAware ADS-B
Wed 12:43:17 PM 31.4650 -104.8540 106° East 544 626 37,000  Level FlightAware ADS-B
Wed 12:43:57 PM 31.4410 -104.7580 106° East 544 626 37,000  Level FlightAware ADS-B
Wed 12:44:37 PM 31.4180 -104.6610 106° East 544 626 37,000  Level FlightAware ADS-B
Wed 12:45:17 PM 31.3940 -104.5650 106° East 544 626 37,000  Level FlightAware ADS-B
Wed 12:46:07 PM 31.3650 -104.4440 106° East 544 626 37,000  Level FlightAware ADS-B
Wed 12:46:47 PM 31.3410 -104.3480 106° East 544 626 37,000  Level FlightAware ADS-B
Wed 12:47:20 PM 31.2403 -104.0303 106° East 541 623 37,000 -63 Level Albuquerque Center
Wed 12:48:22 PM 31.1947 -103.8642 108° East 539 620 36,900  Descending Albuquerque Center
Wed 12:54:02 PM 30.9360 -102.9150 108° East 538 619 37,000 16 Climbing FlightAware ADS-B
Wed 12:54:42 PM 30.9090 -102.8080 106° East 536 617 37,000  Level FlightAware ADS-B
Wed 12:55:27 PM 30.8760 -102.6790 107° East 537 618 37,000  Level FlightAware ADS-B
Wed 12:56:12 PM 30.8440 -102.5550 107° East 534 615 37,000  Level FlightAware ADS-B
Wed 12:56:47 PM 30.8190 -102.4590 107° East 533 613 37,000  Level FlightAware ADS-B
Wed 12:57:32 PM 30.7870 -102.3400 107° East 532 612 37,000  Level FlightAware ADS-B
Wed 12:58:12 PM 30.7580 -102.2290 107° East 531 611 37,000  Level FlightAware ADS-B
Wed 12:59:07 PM 30.7210 -102.0850 107° East 527 606 37,000  Level FlightAware ADS-B
Wed 12:59:52 PM 30.6870 -101.9610 108° East 525 604 37,000  Level FlightAware ADS-B
Wed 01:00:37 PM 30.6540 -101.8370 107° East 522 601 37,000  Level FlightAware ADS-B
Wed 01:01:17 PM 30.6260 -101.7310 107° East 520 598 37,000  Level FlightAware ADS-B
Wed 01:02:02 PM 30.5930 -101.6080 107° East 520 598 37,000  Level FlightAware ADS-B
Wed 01:02:42 PM 30.5640 -101.5010 107° East 517 595 37,000  Level FlightAware ADS-B
Wed 01:03:22 PM 30.5360 -101.3970 107° East 516 594 37,000  Level FlightAware ADS-B
Wed 01:04:07 PM 30.5040 -101.2810 108° East 514 592 37,000  Level FlightAware ADS-B
Wed 01:04:47 PM 30.4760 -101.1770 107° East 513 590 37,000  Level FlightAware ADS-B
Wed 01:05:32 PM 30.4420 -101.0550 108° East 513 590 37,000  Level FlightAware ADS-B
Wed 01:06:27 PM 30.4030 -100.9130 108° East 512 589 37,000  Level FlightAware ADS-B
Wed 01:07:12 PM 30.3720 -100.7980 107° East 511 588 37,000  Level FlightAware ADS-B
Wed 01:07:52 PM 30.3410 -100.6900 108° East 512 589 37,000  Level FlightAware ADS-B
Wed 01:08:32 PM 30.3140 -100.5900 107° East 512 589 37,000  Level FlightAware ADS-B
Wed 01:09:17 PM 30.2810 -100.4700 108° East 512 589 37,000  Level FlightAware ADS-B
Wed 01:09:57 PM 30.2520 -100.3670 108° East 511 588 37,000  Level FlightAware ADS-B
Wed 01:10:42 PM 30.2180 -100.2480 108° East 511 588 37,000  Level FlightAware ADS-B
Wed 01:11:22 PM 30.1890 -100.1440 108° East 511 588 37,000  Level FlightAware ADS-B
Wed 01:12:02 PM 30.1600 -100.0420 108° East 511 588 37,000  Level FlightAware ADS-B
Wed 01:12:47 PM 30.1270 -99.9270 108° East 511 588 37,000  Level FlightAware ADS-B
Wed 01:13:27 PM 30.0980 -99.8220 108° East 510 587 37,000  Level FlightAware ADS-B
Wed 01:14:07 PM 30.0680 -99.7190 109° East 510 587 37,000  Level FlightAware ADS-B
Wed 01:14:52 PM 30.0350 -99.6020 108° East 509 586 37,000  Level FlightAware ADS-B
Wed 01:15:32 PM 30.0050 -99.4980 108° East 508 585 37,000  Level FlightAware ADS-B
Wed 01:16:17 PM 29.9720 -99.3840 108° East 507 583 37,000  Level FlightAware ADS-B
Wed 01:16:57 PM 29.9420 -99.2830 109° East 510 587 37,000  Level FlightAware ADS-B
Wed 01:17:42 PM 29.9060 -99.1690 110° East 514 592 37,000 -141 Level FlightAware ADS-B
Wed 01:18:22 PM 29.8680 -99.0660 113° Southeast 514 592 36,800 -635 Descending FlightAware ADS-B
Wed 01:19:07 PM 29.8270 -98.9540 113° Southeast 515 593 36,100 -930 Descending FlightAware ADS-B
Wed 01:19:33 PM 29.8006 -98.8827 113° Southeast 516 594 35,700 -984 Descending FlightAware ADS-B
Wed 01:20:08 PM 29.7683 -98.7954 113° Southeast 512 589 35,100 -568 Descending FlightAware ADS-B
Wed 01:20:47 PM 29.7318 -98.6972 113° Southeast 508 585 35,000 -91 Descending FlightAware ADS-B
Wed 01:21:14 PM 29.7069 -98.6305 113° Southeast 508 585 35,000  Level FlightAware ADS-B
Wed 01:21:20 PM 29.7016 -98.6162 113° Southeast 508 585 35,000  Level FlightAware ADS-B
Wed 01:21:50 PM 29.6738 -98.5417 113° Southeast 507 583 35,000  Level FlightAware ADS-B
Wed 01:22:11 PM 29.6574 -98.4901 110° East 507 583 35,000  Level FlightAware ADS-B
Wed 01:22:31 PM 29.6479 -98.4375 102° East 506 582 35,000  Level FlightAware ADS-B
Wed 01:22:51 PM 29.6453 -98.3814 93° East 507 583 35,000  Level FlightAware ADS-B
Wed 01:22:54 PM 29.6455 -98.3734 88° East 504 580 35,000  Level FlightAware ADS-B
Wed 01:23:06 PM 29.6460 -98.3416 89° East 504 580 35,000  Level FlightAware ADS-B
Wed 01:23:25 PM 29.6467 -98.2908 89° East 505 581 35,000  Level FlightAware ADS-B
Wed 01:23:51 PM 29.6478 -98.2213 89° East 505 581 35,000  Level FlightAware ADS-B
Wed 01:24:21 PM 29.6489 -98.1426 89° East 502 578 35,000  Level FlightAware ADS-B
Wed 01:24:25 PM 29.6491 -98.1316 89° East 502 578 35,000  Level FlightAware ADS-B
Wed 01:24:55 PM 29.6502 -98.0507 89° East 501 577 35,000  Level FlightAware ADS-B
Wed 01:25:00 PM 29.6504 -98.0397 89° East 501 577 35,000  Level FlightAware ADS-B
Wed 01:25:26 PM 29.6513 -97.9683 89° East 501 577 35,000  Level FlightAware ADS-B
Wed 01:25:48 PM 29.6521 -97.9109 89° East 501 577 35,000  Level FlightAware ADS-B
Wed 01:25:58 PM 29.6524 -97.8855 89° East 500 575 35,000  Level FlightAware ADS-B
Wed 01:26:26 PM 29.6534 -97.8097 89° East 499 574 35,000  Level FlightAware ADS-B
Wed 01:26:28 PM 29.6534 -97.8059 90° East 498 573 35,000 -1,875 Level FlightAware ADS-B
Wed 01:26:58 PM 29.6504 -97.7266 92° East 496 571 34,000 -1,935 Descending FlightAware ADS-B
Wed 01:26:59 PM 29.6503 -97.7237 92° East 498 573 34,000 -2,727 Level FlightAware ADS-B
Wed 01:27:20 PM 29.6467 -97.6690 94° East 497 572 33,000 -2,897 Descending FlightAware ADS-B
Wed 01:27:28 PM 29.6453 -97.6465 94° East 498 573 32,600 -1,588 Descending FlightAware ADS-B
Wed 01:27:54 PM 29.6410 -97.5797 94° East 498 573 32,100 -1,161 Descending FlightAware ADS-B
Wed 01:27:59 PM 29.6402 -97.5668 94° East 498 573 32,000 -800 Descending FlightAware ADS-B
Wed 01:28:24 PM 29.6359 -97.4993 94° East 499 574 31,700 -800 Descending FlightAware ADS-B
Wed 01:28:29 PM 29.6352 -97.4866 94° East 500 575 31,600 -1,000 Descending FlightAware ADS-B
Wed 01:29:00 PM 29.6300 -97.4056 94° East 499 574 31,100 -938 Descending FlightAware ADS-B
Wed 01:29:01 PM 29.6297 -97.4003 94° East 498 573 31,100 -2,000 Level FlightAware ADS-B
Wed 01:29:30 PM 29.6248 -97.3262 94° East 494 568 30,100 -2,341 Descending FlightAware ADS-B
Wed 01:29:42 PM 29.6228 -97.2953 94° East 494 568 29,500 -3,000 Descending FlightAware ADS-B
Wed 01:30:00 PM 29.6196 -97.2470 94° East 493 567 28,600 -3,000 Descending FlightAware ADS-B
Wed 01:30:12 PM 29.6176 -97.2164 94° East 495 570 28,000 -3,400 Descending FlightAware ADS-B
Wed 01:30:30 PM 29.6143 -97.1674 94° East 497 572 26,900 -3,061 Descending FlightAware ADS-B
Wed 01:31:01 PM 29.6091 -97.0885 94° East 492 566 25,500 -2,656 Descending FlightAware ADS-B
Wed 01:31:31 PM 29.6040 -97.0108 94° East 483 556 24,200 -2,710 Descending FlightAware ADS-B
Wed 01:32:03 PM 29.5986 -96.9299 94° East 476 548 22,700 -2,710 Descending FlightAware ADS-B
Wed 01:32:33 PM 29.5936 -96.8549 94° East 467 537 21,400 -2,500 Descending FlightAware ADS-B
Wed 01:33:03 PM 29.5889 -96.7815 94° East 455 524 20,200 -2,400 Descending FlightAware ADS-B
Wed 01:33:33 PM 29.5839 -96.7088 95° East 445 512 19,000 -2,361 Descending FlightAware ADS-B
Wed 01:34:04 PM 29.5789 -96.6384 95° East 435 501 17,800 -2,557 Descending FlightAware ADS-B
Wed 01:34:34 PM 29.5739 -96.5681 95° East 428 493 16,400 -2,557 Descending FlightAware ADS-B
Wed 01:35:05 PM 29.5692 -96.5003 95° East 420 483 15,200 -2,459 Descending FlightAware ADS-B
Wed 01:35:35 PM 29.5645 -96.4342 95° East 411 473 13,900 -2,500 Descending FlightAware ADS-B
Wed 01:36:05 PM 29.5600 -96.3685 94° East 402 463 12,700 -2,400 Descending FlightAware ADS-B
Wed 01:36:35 PM 29.5554 -96.3055 95° East 393 452 11,500 -2,361 Descending FlightAware ADS-B
Wed 01:37:06 PM 29.5509 -96.2428 95° East 386 444 10,300 -1,731 Descending FlightAware ADS-B
Wed 01:37:27 PM 29.5478 -96.2002 95° East 366 421 10,000 -960 Descending FlightAware ADS-B
Wed 01:37:31 PM 29.5476 -96.1922 92° East 363 418 9,900 -857 Descending FlightAware ADS-B
Wed 01:37:34 PM 29.5477 -96.1861 89° East 361 415 9,900  Level FlightAware ADS-B
Wed 01:37:38 PM 29.5484 -96.1782 84° East 359 413 9,900  Level FlightAware ADS-B
Wed 01:37:42 PM 29.5493 -96.1719 81° East 356 410 9,900  Level FlightAware ADS-B
Wed 01:37:46 PM 29.5508 -96.1645 77° East 351 404 9,900  Level FlightAware ADS-B
Wed 01:37:50 PM 29.5529 -96.1572 72° East 348 400 9,900  Level FlightAware ADS-B
Wed 01:37:54 PM 29.5553 -96.1502 68° East 343 395 9,900  Level FlightAware ADS-B
Wed 01:37:58 PM 29.5580 -96.1436 65° Northeast 339 390 9,900  Level FlightAware ADS-B
Wed 01:38:13 PM 29.5693 -96.1207 60° Northeast 322 371 9,900  Level FlightAware ADS-B
Wed 01:38:29 PM 29.5805 -96.0985 60° Northeast 307 353 9,900  Level FlightAware ADS-B
Wed 01:38:44 PM 29.5910 -96.0776 60° Northeast 302 348 9,900  Level FlightAware ADS-B
Wed 01:38:59 PM 29.6018 -96.0561 60° Northeast 301 346 9,900  Level FlightAware ADS-B
Wed 01:39:14 PM 29.6122 -96.0356 60° Northeast 300 345 9,900 -194 Level FlightAware ADS-B
Wed 01:39:30 PM 29.6230 -96.0142 60° Northeast 301 346 9,800 -968 Descending FlightAware ADS-B
Wed 01:39:45 PM 29.6339 -95.9929 60° Northeast 305 351 9,400 -1,500 Descending FlightAware ADS-B
Wed 01:39:54 PM 29.6399 -95.9807 60° Northeast 304 350 9,200 -1,286 Descending FlightAware ADS-B
Wed 01:39:59 PM 29.6443 -95.9734 55° Northeast 304 350 9,100 -1,333 Descending FlightAware ADS-B
Wed 01:40:03 PM 29.6482 -95.9677 52° Northeast 305 351 9,000 -2,000 Descending FlightAware ADS-B
Wed 01:40:08 PM 29.6529 -95.9618 47° Northeast 305 351 8,800 -1,500 Descending FlightAware ADS-B
Wed 01:40:11 PM 29.6557 -95.9586 45° Northeast 304 350 8,800 -750 Level FlightAware ADS-B
Wed 01:40:16 PM 29.6611 -95.9532 41° Northeast 303 349 8,700 -1,333 Descending FlightAware ADS-B
Wed 01:40:20 PM 29.6656 -95.9493 37° Northeast 303 349 8,600 -1,500 Descending FlightAware ADS-B
Wed 01:40:24 PM 29.6696 -95.9462 34° Northeast 302 348 8,500 -1,500 Descending FlightAware ADS-B
Wed 01:40:28 PM 29.6742 -95.9432 30° Northeast 301 346 8,400 -1,263 Descending FlightAware ADS-B
Wed 01:40:43 PM 29.6931 -95.9325 26° Northeast 301 346 8,100 -1,400 Descending FlightAware ADS-B
Wed 01:40:58 PM 29.7128 -95.9214 26° Northeast 301 346 7,700 -1,600 Descending FlightAware ADS-B
Wed 01:41:13 PM 29.7314 -95.9111 26° Northeast 299 344 7,300 -1,355 Descending FlightAware ADS-B
Wed 01:41:29 PM 29.7504 -95.9006 26° Northeast 297 342 7,000 -774 Descending FlightAware ADS-B
Wed 01:41:44 PM 29.7696 -95.8898 26° Northeast 293 337 6,900 -200 Descending FlightAware ADS-B
Wed 01:41:59 PM 29.7880 -95.8795 26° Northeast 291 335 6,900  Level FlightAware ADS-B
Wed 01:42:15 PM 29.8064 -95.8691 26° Northeast 288 331 6,900  Level FlightAware ADS-B
Wed 01:42:30 PM 29.8243 -95.8591 26° Northeast 288 331 6,900  Level FlightAware ADS-B
Wed 01:42:45 PM 29.8429 -95.8486 26° Northeast 289 333 6,900  Level FlightAware ADS-B
Wed 01:43:00 PM 29.8611 -95.8384 26° Northeast 291 335 6,900  Level FlightAware ADS-B
Wed 01:43:16 PM 29.8802 -95.8278 26° Northeast 290 334 6,900 -774 Level FlightAware ADS-B
Wed 01:43:31 PM 29.8986 -95.8174 26° Northeast 291 335 6,500 -1,742 Descending FlightAware ADS-B
Wed 01:43:47 PM 29.9183 -95.8064 26° Northeast 292 336 6,000 -1,742 Descending FlightAware ADS-B
Wed 01:44:02 PM 29.9366 -95.7961 26° Northeast 294 338 5,600 -1,615 Descending FlightAware ADS-B
Wed 01:44:13 PM 29.9501 -95.7884 26° Northeast 297 342 5,300 -1,714 Descending FlightAware ADS-B
Wed 01:44:16 PM 29.9537 -95.7862 28° Northeast 297 342 5,200 -1,714 Descending FlightAware ADS-B
Wed 01:44:20 PM 29.9583 -95.7829 32° Northeast 296 341 5,100 -1,333 Descending FlightAware ADS-B
Wed 01:44:25 PM 29.9639 -95.7775 40° Northeast 295 339 5,000 -1,333 Descending FlightAware ADS-B
Wed 01:44:29 PM 29.9668 -95.7738 48° Northeast 293 337 4,900 -857 Descending FlightAware ADS-B
Wed 01:44:32 PM 29.9693 -95.7699 53° Northeast 287 330 4,900 -857 Level FlightAware ADS-B
Wed 01:44:36 PM 29.9722 -95.7646 58° Northeast 282 325 4,800  Descending FlightAware ADS-B
Wed 01:44:51 PM 29.9821 -95.7448 60° Northeast 279 321 4,900 286 Climbing FlightAware ADS-B
Wed 01:44:57 PM 29.9858 -95.7368 62° Northeast 278 320 4,900  Level FlightAware ADS-B
Wed 01:45:01 PM 29.9877 -95.7318 66° East 274 315 4,900  Level FlightAware ADS-B
Wed 01:45:07 PM 29.9898 -95.7234 74° East 272 313 4,900  Level FlightAware ADS-B
Wed 01:45:13 PM 29.9909 -95.7152 81° East 269 310 4,900  Level FlightAware ADS-B
Wed 01:45:17 PM 29.9913 -95.7092 86° East 268 308 4,900  Level FlightAware ADS-B
Wed 01:45:23 PM 29.9917 -95.7008 87° East 263 303 4,900  Level FlightAware ADS-B
Wed 01:45:31 PM 29.9919 -95.6899 89° East 255 293 4,900  Level FlightAware ADS-B
Wed 01:45:46 PM 29.9925 -95.6700 88° East 243 280 4,900  Level FlightAware ADS-B
Wed 01:46:01 PM 29.9929 -95.6505 89° East 236 272 4,900 -462 Level FlightAware ADS-B
Wed 01:46:12 PM 29.9929 -95.6367 90° East 236 272 4,700 -1,286 Descending FlightAware ADS-B
Wed 01:46:29 PM 29.9929 -95.6161 90° East 238 274 4,300 -1,655 Descending FlightAware ADS-B
Wed 01:46:41 PM 29.9928 -95.5998 90° East 239 275 3,900 -1,440 Descending FlightAware ADS-B
Wed 01:46:54 PM 29.9929 -95.5837 90° East 232 267 3,700 -968 Descending FlightAware ADS-B
Wed 01:47:12 PM 29.9931 -95.5630 89° East 222 255 3,400 -909 Descending FlightAware ADS-B
Wed 01:47:27 PM 29.9931 -95.5451 90° East 216 249 3,200 -1,200 Descending FlightAware ADS-B
Wed 01:47:42 PM 29.9932 -95.5271 90° East 218 251 2,800 -1,500 Descending FlightAware ADS-B
Wed 01:47:47 PM 29.9932 -95.5211 90° East 216 249 2,700 -1,125 Descending FlightAware ADS-B
Wed 01:47:58 PM 29.9932 -95.5100 90° East 213 245 2,500 -1,000 Descending FlightAware ADS-B
Wed 01:48:11 PM 29.9932 -95.4943 90° East 205 236 2,300 -968 Descending FlightAware ADS-B
Wed 01:48:29 PM 29.9933 -95.4757 90° East 203 234 2,000 -1,034 Descending FlightAware ADS-B
Wed 01:48:40 PM 29.9932 -95.4633 91° East 197 227 1,800 -1,143 Descending FlightAware ADS-B
Wed 01:48:50 PM 29.9933 -95.4537 89° East 190 219 1,600 -960 Descending FlightAware ADS-B
Wed 01:49:05 PM 29.9934 -95.4385 90° East 184 212 1,400 -857 Descending FlightAware ADS-B
Wed 01:49:18 PM 29.9934 -95.4268 90° East 166 191 1,200 -1,043 Descending FlightAware ADS-B
Wed 01:49:28 PM 29.9934 -95.4177 90° East 163 188 1,000 -947 Descending FlightAware ADS-B
Wed 01:49:37 PM 29.9934 -95.4102 90° East 158 182 900 -750 Descending FlightAware ADS-B
Wed 01:49:44 PM 29.9934 -95.4041 90° East 159 183 800 -818 Descending FlightAware ADS-B
Wed 01:49:59 PM 29.9935 -95.3918 89° East 151 174 600 -600 Descending FlightAware ADS-B
Wed 01:50:04 PM 29.9935 -95.3881 90° East 153 176 600 -462 Level FlightAware ADS-B
Wed 01:50:12 PM 29.9934 -95.3815 91° East 155 178 500 -1,125 Descending FlightAware ADS-B
Wed 01:50:20 PM 29.9935 -95.3745 89° East 157 181 300 -1,125 Descending FlightAware ADS-B
Wed 01:50:28 PM 29.9935 -95.3678 90° East 156 180 200 -500 Descending FlightAware ADS-B
Wed 01:50:32 PM 29.9935 -95.3648 90° East 154 177 200 -462 Level FlightAware ADS-B
Wed 01:50:41 PM 29.9934 -95.3579 91° East 155 178 100 -667 Descending FlightAware ADS-B

Login

Don't have an account? Register now (free) for customized features, flight alerts, and more!